Time;durP1;ratioP1;P1;durP2;ratioP2;P2;SDS_P1;SDS_P2;PMS_P1;PMS_P2;Temp;Humidity;BMP_temperature;BMP_pressure;BME280_temperature;BME280_humidity;BME280_pressure;Samples;Min_cycle;Max_cycle;Signal;HPM_P1;HPM_P2
2023/07/15 00:01:23;;;;;;;5.00;4.30;;;;;;;17.23;72.77;100579.28;4877752;29;20131;-83
2023/07/15 00:03:51;;;;;;;4.95;3.47;;;;;;;17.22;71.95;100574.88;4844952;29;20465;-82
2023/07/15 00:06:20;;;;;;;4.78;4.00;;;;;;;17.23;74.76;100573.94;4857696;29;20049;-83
2023/07/15 00:08:48;;;;;;;5.72;4.10;;;;;;;17.30;73.88;100573.56;4876410;29;20420;-85
2023/07/15 00:11:21;;;;;;;6.30;3.97;;;;;;;17.19;73.94;100572.38;4856850;29;20041;-83
2023/07/15 00:13:47;;;;;;;5.70;3.80;;;;;;;17.33;72.76;100570.75;4861895;29;20116;-84
2023/07/15 00:16:14;;;;;;;5.60;4.05;;;;;;;17.24;73.21;100570.34;4884179;29;20140;-82
2023/07/15 00:18:42;;;;;;;6.80;4.25;;;;;;;17.32;74.30;100570.81;4861679;29;20047;-85
2023/07/15 00:21:20;;;;;;;5.07;3.88;;;;;;;17.38;71.88;100565.16;4856435;29;20751;-82
2023/07/15 00:23:58;;;;;;;4.93;3.78;;;;;;;17.43;73.46;100564.00;4856193;29;20489;-82
2023/07/15 00:26:29;;;;;;;6.07;4.13;;;;;;;17.38;75.92;100555.34;4841872;29;20481;-83
2023/07/15 00:28:57;;;;;;;7.30;4.20;;;;;;;17.45;75.59;100555.91;4862580;29;20061;-83
2023/07/15 00:31:25;;;;;;;4.45;3.90;;;;;;;17.43;76.21;100550.66;4857935;29;20043;-84
2023/07/15 00:33:53;;;;;;;5.60;4.45;;;;;;;17.51;76.84;100552.94;4848995;29;20568;-83
2023/07/15 00:36:19;;;;;;;6.68;4.20;;;;;;;17.46;77.63;100546.94;4855018;29;20104;-83
2023/07/15 00:38:46;;;;;;;4.88;3.60;;;;;;;17.49;76.56;100540.56;4865732;29;20053;-84
2023/07/15 00:41:17;;;;;;;4.93;3.72;;;;;;;17.45;77.08;100537.22;4867825;29;20133;-82
2023/07/15 00:43:58;;;;;;;4.65;4.05;;;;;;;17.55;76.81;100521.56;4856606;29;20485;-82
2023/07/15 00:46:54;;;;;;;4.90;3.80;;;;;;;17.58;75.79;100518.75;4860167;29;20040;-85
2023/07/15 00:49:30;;;;;;;6.07;4.00;;;;;;;17.73;72.96;100523.31;4856382;29;20036;-82
2023/07/15 00:52:03;;;;;;;4.80;3.45;;;;;;;17.73;72.86;100518.84;4873302;29;20037;-82
2023/07/15 00:54:32;;;;;;;5.35;4.40;;;;;;;17.71;73.53;100517.19;4861005;29;20049;-84
2023/07/15 00:57:00;;;;;;;4.70;3.60;;;;;;;17.74;73.73;100519.72;4847772;29;20482;-82
2023/07/15 00:59:27;;;;;;;5.72;4.28;;;;;;;17.67;75.26;100519.16;4845908;29;20751;-85
2023/07/15 01:01:54;;;;;;;4.30;3.55;;;;;;;17.73;70.46;100512.63;4860454;29;20041;-83
2023/07/15 01:04:21;;;;;;;7.03;4.22;;;;;;;17.75;72.92;100505.41;4871064;29;20056;-82
2023/07/15 01:06:48;;;;;;;4.75;3.92;;;;;;;17.84;72.48;100506.75;4871521;29;20052;-81
2023/07/15 01:09:15;;;;;;;5.35;3.75;;;;;;;17.79;72.17;100490.94;4857815;29;20233;-84
2023/07/15 01:11:42;;;;;;;6.53;4.00;;;;;;;17.84;70.51;100499.59;4853084;29;20092;-81
2023/07/15 01:14:12;;;;;;;6.38;3.95;;;;;;;17.92;70.71;100499.19;4871332;29;20524;-82
2023/07/15 01:16:40;;;;;;;6.90;4.13;;;;;;;17.95;70.81;100501.69;4858606;29;20682;-81
2023/07/15 01:19:07;;;;;;;4.57;3.78;;;;;;;17.94;71.18;100500.81;4849580;29;20048;-81
2023/07/15 01:21:34;;;;;;;6.50;3.90;;;;;;;17.99;70.37;100501.44;4877894;29;20523;-83
2023/07/15 01:24:09;;;;;;;4.63;4.13;;;;;;;18.02;69.28;100495.06;4848689;29;20076;-82
2023/07/15 01:26:36;;;;;;;5.22;4.05;;;;;;;17.93;70.33;100500.91;4817141;29;21117;-82
2023/07/15 01:29:03;;;;;;;6.47;4.22;;;;;;;18.00;68.96;100494.28;4825207;29;20046;-84
2023/07/15 01:31:31;;;;;;;4.32;3.92;;;;;;;18.11;68.27;100488.34;4793581;29;20059;-83
2023/07/15 01:33:58;;;;;;;5.15;3.97;;;;;;;17.98;69.45;100491.69;4791345;29;20486;-83
2023/07/15 01:36:26;;;;;;;5.88;3.80;;;;;;;18.00;68.62;100497.81;4788767;29;20043;-83
2023/07/15 01:38:53;;;;;;;4.03;3.55;;;;;;;17.89;70.01;100491.31;4789185;29;20053;-82
2023/07/15 01:41:20;;;;;;;4.47;3.88;;;;;;;17.85;70.13;100492.44;4807274;29;20130;-82
2023/07/15 01:43:47;;;;;;;4.78;3.95;;;;;;;17.76;70.84;100490.25;4797985;29;20051;-82
2023/07/15 01:46:17;;;;;;;5.10;4.18;;;;;;;17.75;71.18;100488.53;4806111;29;20135;-82
2023/07/15 01:48:44;;;;;;;5.90;3.97;;;;;;;17.74;71.60;100482.31;4805260;29;20134;-82
2023/07/15 01:51:11;;;;;;;4.22;3.72;;;;;;;17.64;71.50;100481.03;4817886;29;20107;-82
2023/07/15 01:53:37;;;;;;;5.05;3.83;;;;;;;17.56;73.07;100467.19;4820350;29;20129;-83
2023/07/15 01:56:04;;;;;;;5.78;3.78;;;;;;;17.51;71.38;100467.47;4805795;29;20145;-82
2023/07/15 01:58:31;;;;;;;5.68;4.03;;;;;;;17.44;72.98;100466.03;4802696;29;20049;-83
2023/07/15 02:00:58;;;;;;;5.28;3.72;;;;;;;17.40;73.43;100468.03;4811613;29;20059;-82
2023/07/15 02:03:25;;;;;;;5.40;3.70;;;;;;;17.29;74.19;100470.38;4811443;29;20061;-82
2023/07/15 02:05:52;;;;;;;4.28;3.60;;;;;;;17.23;74.34;100469.81;4806167;29;20051;-82
2023/07/15 02:08:22;;;;;;;4.82;3.70;;;;;;;17.08;75.33;100463.47;4805568;29;20053;-82
2023/07/15 02:10:49;;;;;;;4.72;4.00;;;;;;;17.03;75.09;100461.00;4807023;29;20429;-82
2023/07/15 02:13:16;;;;;;;6.32;3.63;;;;;;;17.11;73.95;100456.16;4819976;29;20039;-82
2023/07/15 02:15:43;;;;;;;5.70;3.92;;;;;;;17.08;74.85;100452.78;4806563;29;20046;-82
2023/07/15 02:18:10;;;;;;;7.57;4.25;;;;;;;17.08;77.49;100450.13;4807644;29;20077;-82
2023/07/15 02:20:38;;;;;;;5.78;4.00;;;;;;;17.05;78.64;100448.44;4792133;29;20050;-82
2023/07/15 02:23:05;;;;;;;5.72;4.78;;;;;;;17.02;78.16;100450.41;4803319;29;20488;-82
2023/07/15 02:25:33;;;;;;;4.53;4.00;;;;;;;16.93;78.61;100442.88;4821495;29;20147;-82
2023/07/15 02:28:00;;;;;;;4.50;4.10;;;;;;;16.87;79.44;100446.69;4809010;29;20079;-82
2023/07/15 02:30:26;;;;;;;5.18;3.88;;;;;;;16.80;78.93;100447.94;4820669;29;20039;-82
2023/07/15 02:32:54;;;;;;;4.28;3.63;;;;;;;16.72;79.77;100448.31;4803208;29;20043;-82
2023/07/15 02:35:21;;;;;;;4.72;4.22;;;;;;;16.81;78.54;100437.19;4801258;29;20407;-82
2023/07/15 02:37:49;;;;;;;6.00;4.28;;;;;;;16.83;79.08;100440.66;4803461;29;20578;-82
2023/07/15 02:40:17;;;;;;;5.38;3.92;;;;;;;16.74;80.98;100433.13;4805400;29;20505;-82
2023/07/15 02:42:44;;;;;;;5.13;3.95;;;;;;;16.61;81.28;100439.97;4821754;29;20046;-83
2023/07/15 02:45:12;;;;;;;5.32;4.28;;;;;;;16.66;80.74;100434.41;4801986;29;20055;-83
2023/07/15 02:47:41;;;;;;;5.38;4.53;;;;;;;16.63;81.77;100437.22;4799643;29;20042;-83
2023/07/15 02:50:09;;;;;;;4.53;4.00;;;;;;;16.62;82.26;100436.34;4811976;29;20046;-82
2023/07/15 02:52:45;;;;;;;6.85;4.05;;;;;;;16.59;82.82;100423.16;4808442;29;20053;-83
2023/07/15 02:55:12;;;;;;;6.03;4.72;;;;;;;16.51;84.10;100430.69;4824531;29;20050;-83
2023/07/15 02:57:41;;;;;;;6.20;4.20;;;;;;;16.54;83.98;100428.72;4793668;29;20428;-83
2023/07/15 03:00:13;;;;;;;6.03;4.15;;;;;;;16.48;85.10;100434.38;4816342;29;20043;-84
2023/07/15 03:02:44;;;;;;;5.40;4.30;;;;;;;16.51;83.83;100433.34;4796729;29;20046;-84
2023/07/15 03:05:12;;;;;;;5.50;4.20;;;;;;;16.48;84.80;100428.13;4810351;29;20077;-82
2023/07/15 03:07:44;;;;;;;5.78;4.40;;;;;;;16.50;84.34;100431.63;4810094;29;20055;-84
2023/07/15 03:10:15;;;;;;;5.10;4.25;;;;;;;16.45;84.22;100439.84;4820737;29;20081;-83
2023/07/15 03:12:44;;;;;;;5.40;4.35;;;;;;;16.52;83.94;100424.41;4824113;29;20418;-83
2023/07/15 03:15:11;;;;;;;4.43;3.80;;;;;;;16.49;84.17;100424.56;4824579;29;20066;-83
2023/07/15 03:17:38;;;;;;;5.35;4.05;;;;;;;16.33;85.35;100425.31;4806882;29;20279;-84
2023/07/15 03:20:30;;;;;;;5.13;4.20;;;;;;;16.47;83.69;100421.09;4790821;29;20047;-83
2023/07/15 03:22:58;;;;;;;4.80;3.85;;;;;;;16.30;84.93;100424.56;4823734;29;20049;-83
2023/07/15 03:25:26;;;;;;;5.93;3.95;;;;;;;16.35;85.39;100421.69;4816709;29;20044;-83
2023/07/15 03:27:53;;;;;;;4.75;4.03;;;;;;;16.34;85.48;100407.50;4824874;29;20055;-83
2023/07/15 03:30:21;;;;;;;5.63;4.32;;;;;;;16.30;85.79;100412.09;4809767;29;20069;-83
2023/07/15 03:32:48;;;;;;;6.07;4.30;;;;;;;16.37;84.51;100410.00;4811461;29;20759;-82
2023/07/15 03:35:19;;;;;;;4.97;4.32;;;;;;;16.33;85.15;100409.31;4811291;29;20148;-85
2023/07/15 03:37:46;;;;;;;5.57;4.63;;;;;;;16.27;86.40;100411.41;4792450;29;20046;-85
2023/07/15 03:40:14;;;;;;;4.38;3.90;;;;;;;16.32;87.40;100406.72;4806761;29;20039;-82
2023/07/15 03:42:41;;;;;;;6.05;4.10;;;;;;;16.30;87.65;100405.91;4803786;29;20541;-83
2023/07/15 03:45:09;;;;;;;4.53;4.10;;;;;;;16.43;86.19;100400.84;4807577;29;20047;-83
2023/07/15 03:47:36;;;;;;;4.88;4.32;;;;;;;16.32;87.57;100396.91;4804859;29;20046;-84
2023/07/15 03:50:10;;;;;;;4.60;4.20;;;;;;;16.35;87.58;100400.38;4806660;29;20043;-83
2023/07/15 03:52:37;;;;;;;5.28;4.20;;;;;;;16.48;86.33;100401.47;4822239;29;20047;-84
2023/07/15 03:55:05;;;;;;;5.63;4.60;;;;;;;16.42;86.55;100394.66;4808938;29;20112;-84
2023/07/15 03:57:33;;;;;;;5.18;4.50;;;;;;;16.48;86.63;100396.16;4810002;29;20039;-83
2023/07/15 03:59:59;;;;;;;4.93;4.40;;;;;;;16.37;87.79;100401.16;4794774;29;20559;-82
2023/07/15 04:02:27;;;;;;;5.05;4.45;;;;;;;16.43;86.51;100400.84;4814771;29;20066;-84
2023/07/15 04:04:54;;;;;;;6.18;4.68;;;;;;;16.56;86.17;100394.84;4824022;29;20058;-83
2023/07/15 04:07:21;;;;;;;5.28;4.50;;;;;;;16.55;85.31;100395.78;4815023;29;20051;-83
2023/07/15 04:09:48;;;;;;;13.43;6.05;;;;;;;16.57;85.83;100395.72;4839942;29;20491;-83
2023/07/15 04:12:14;;;;;;;5.45;4.70;;;;;;;16.66;85.42;100397.94;4782670;29;20051;-84
2023/07/15 04:14:41;;;;;;;5.07;4.30;;;;;;;16.69;85.83;100383.59;4837329;29;20150;-84
2023/07/15 04:17:11;;;;;;;6.60;3.85;;;;;;;16.85;84.09;100387.22;4810104;29;20253;-83
2023/07/15 04:19:38;;;;;;;5.53;4.20;;;;;;;16.98;82.64;100392.78;4795114;29;21347;-84
2023/07/15 04:22:06;;;;;;;5.60;3.97;;;;;;;16.97;83.43;100380.38;4824532;29;20050;-83
2023/07/15 04:24:34;;;;;;;4.82;4.38;;;;;;;16.92;84.18;100383.31;4783820;29;20042;-84
2023/07/15 04:27:03;;;;;;;4.65;4.25;;;;;;;17.12;83.97;100376.94;4825155;29;20153;-84
2023/07/15 04:29:30;;;;;;;7.75;4.85;;;;;;;17.16;82.07;100374.03;4808219;29;20042;-84
2023/07/15 04:31:57;;;;;;;5.53;4.10;;;;;;;17.16;83.68;100374.03;4802889;29;20054;-85
2023/07/15 04:34:24;;;;;;;5.13;4.35;;;;;;;17.19;83.89;100370.34;4814781;29;20043;-83
2023/07/15 04:36:51;;;;;;;5.90;4.60;;;;;;;17.21;83.15;100372.91;4813808;29;20123;-83
2023/07/15 04:39:18;;;;;;;6.28;4.63;;;;;;;17.37;83.46;100376.50;4808065;29;20046;-83
2023/07/15 04:41:47;;;;;;;5.05;4.43;;;;;;;17.49;79.96;100362.53;4809736;29;20046;-83
2023/07/15 04:44:14;;;;;;;5.28;4.78;;;;;;;17.59;79.69;100363.75;4799314;29;20042;-84
2023/07/15 04:46:53;;;;;;;5.30;4.03;;;;;;;17.61;81.13;100369.00;4802643;29;20142;-84
2023/07/15 04:49:23;;;;;;;5.20;4.35;;;;;;;17.75;81.23;100368.28;4825258;29;20066;-82
2023/07/15 04:51:52;;;;;;;4.85;4.18;;;;;;;17.80;80.53;100367.06;4810459;29;20043;-81
2023/07/15 04:54:25;;;;;;;5.40;4.15;;;;;;;17.99;79.33;100374.91;4811736;29;20055;-82
2023/07/15 04:56:52;;;;;;;6.50;4.45;;;;;;;18.02;77.96;100373.91;4817786;29;20108;-84
2023/07/15 04:59:19;;;;;;;4.80;4.30;;;;;;;18.06;78.56;100367.44;4800294;29;20046;-83
2023/07/15 05:01:45;;;;;;;4.22;3.83;;;;;;;18.13;79.45;100367.00;4798136;29;20062;-82
2023/07/15 05:04:13;;;;;;;5.80;4.65;;;;;;;18.51;76.96;100366.63;4781391;29;20053;-82
2023/07/15 05:06:39;;;;;;;4.55;4.00;;;;;;;18.77;74.21;100357.13;4795642;29;20043;-83
2023/07/15 05:09:07;;;;;;;8.52;4.38;;;;;;;18.83;73.29;100356.72;4801119;29;20552;-83
2023/07/15 05:11:33;;;;;;;7.03;4.50;;;;;;;18.85;72.95;100360.19;4816040;29;21446;-83
2023/07/15 05:14:00;;;;;;;6.15;4.15;;;;;;;19.08;72.67;100356.97;4798728;29;20053;-82
2023/07/15 05:16:27;;;;;;;6.63;4.13;;;;;;;19.40;70.38;100355.03;4784842;29;20055;-83
2023/07/15 05:18:54;;;;;;;6.22;4.05;;;;;;;19.76;69.13;100356.41;4786138;29;20043;-82
2023/07/15 05:21:21;;;;;;;4.95;3.88;;;;;;;19.76;67.20;100358.19;4797095;29;20088;-82
2023/07/15 05:23:47;;;;;;;5.32;4.18;;;;;;;19.77;66.97;100359.94;4813694;29;20706;-83
2023/07/15 05:26:14;;;;;;;5.60;4.30;;;;;;;19.71;68.45;100358.50;4794099;29;20054;-82
2023/07/15 05:28:41;;;;;;;4.65;4.25;;;;;;;19.76;69.53;100360.88;4799306;29;20300;-83
2023/07/15 05:31:07;;;;;;;4.30;3.90;;;;;;;19.77;70.03;100358.13;4812539;29;20115;-82
2023/07/15 05:33:34;;;;;;;7.25;3.95;;;;;;;19.93;69.90;100353.50;4801088;29;20489;-83
2023/07/15 05:36:02;;;;;;;6.97;3.92;;;;;;;20.01;67.80;100358.38;4800095;29;20469;-82
2023/07/15 05:38:29;;;;;;;4.93;4.35;;;;;;;20.08;69.17;100354.31;4784827;29;20388;-85
2023/07/15 05:40:56;;;;;;;7.63;3.80;;;;;;;20.45;64.75;100352.81;4797239;29;20100;-82
2023/07/15 05:43:22;;;;;;;5.43;4.30;;;;;;;21.25;62.45;100350.94;4784153;29;20057;-80
2023/07/15 05:45:49;;;;;;;4.97;3.60;;;;;;;22.33;57.90;100350.38;4809162;29;20107;-82
2023/07/15 05:48:16;;;;;;;6.10;3.95;;;;;;;23.44;52.89;100337.41;4808918;29;20054;-82
2023/07/15 05:50:42;;;;;;;4.72;3.60;;;;;;;24.90;48.50;100338.00;4807843;29;20255;-82
2023/07/15 05:53:10;;;;;;;4.00;3.70;;;;;;;26.57;45.81;100343.00;4805837;29;20629;-84
2023/07/15 05:55:37;;;;;;;4.28;3.85;;;;;;;27.97;40.69;100340.47;4786230;29;20051;-84
2023/07/15 05:58:09;;;;;;;5.53;4.30;;;;;;;29.39;38.71;100339.63;4798098;29;20062;-83
2023/07/15 06:00:38;;;;;;;8.43;4.07;;;;;;;30.19;36.94;100337.53;4814346;29;20177;-82
2023/07/15 06:03:04;;;;;;;5.60;3.58;;;;;;;30.72;35.41;100344.44;4782405;29;20341;-82
2023/07/15 06:05:31;;;;;;;4.70;3.58;;;;;;;31.46;34.33;100341.72;4799624;29;20779;-83
2023/07/15 06:07:58;;;;;;;10.40;4.43;;;;;;;30.78;35.37;100348.38;4785270;29;20134;-84
2023/07/15 06:10:24;;;;;;;5.03;3.55;;;;;;;30.90;34.94;100343.44;4797204;29;20093;-84
2023/07/15 06:12:51;;;;;;;4.80;3.65;;;;;;;30.72;35.18;100341.72;4782003;29;20055;-84
2023/07/15 06:15:18;;;;;;;4.38;3.78;;;;;;;30.22;35.83;100337.19;4801482;29;20038;-84
2023/07/15 06:17:45;;;;;;;4.35;3.88;;;;;;;29.23;36.36;100335.94;4816070;29;20122;-83
2023/07/15 06:20:12;;;;;;;6.32;4.18;;;;;;;28.94;38.20;100338.97;4782986;29;20075;-81
2023/07/15 06:22:38;;;;;;;4.82;4.03;;;;;;;28.27;38.83;100330.28;4813093;29;20530;-81
2023/07/15 06:25:05;;;;;;;4.93;3.60;;;;;;;27.47;40.10;100338.06;4807927;29;20128;-83
2023/07/15 06:27:32;;;;;;;4.70;3.28;;;;;;;27.51;40.51;100335.94;4826027;29;20541;-83
2023/07/15 06:29:59;;;;;;;3.65;3.33;;;;;;;27.33;40.84;100335.00;4795340;29;20047;-80
2023/07/15 06:32:25;;;;;;;4.85;3.45;;;;;;;27.31;40.93;100328.84;4782898;29;20039;-81
2023/07/15 06:34:52;;;;;;;5.38;3.95;;;;;;;27.30;42.01;100330.69;4812455;29;20051;-82
2023/07/15 06:37:19;;;;;;;4.60;3.60;;;;;;;27.21;41.32;100342.44;4813189;29;20077;-81
2023/07/15 06:39:46;;;;;;;4.63;3.58;;;;;;;26.97;41.39;100342.88;4814534;29;20419;-82
2023/07/15 06:42:12;;;;;;;5.03;3.80;;;;;;;27.10;41.63;100346.16;4801033;29;20038;-82
2023/07/15 06:44:39;;;;;;;4.00;3.60;;;;;;;26.87;40.87;100333.88;4822108;29;20047;-83
2023/07/15 06:47:10;;;;;;;4.65;3.60;;;;;;;26.77;42.02;100336.63;4822800;29;20480;-83
2023/07/15 06:49:36;;;;;;;4.60;3.47;;;;;;;26.76;42.01;100328.63;4803897;29;20044;-82
2023/07/15 06:52:03;;;;;;;3.97;3.38;;;;;;;26.98;41.07;100319.31;4809676;29;20132;-83
2023/07/15 06:54:34;;;;;;;5.32;3.65;;;;;;;27.17;42.13;100320.19;4788206;29;20503;-83
2023/07/15 06:57:01;;;;;;;4.97;4.10;;;;;;;27.09;41.67;100317.34;4800140;29;20054;-81
2023/07/15 06:59:28;;;;;;;4.07;3.67;;;;;;;26.65;40.84;100314.25;4825875;29;20465;-82
2023/07/15 07:01:54;;;;;;;4.55;3.67;;;;;;;26.92;42.86;100318.91;4810222;29;20452;-82
2023/07/15 07:04:21;;;;;;;4.53;3.60;;;;;;;27.14;42.05;100312.31;4799902;29;20422;-81
2023/07/15 07:06:48;;;;;;;5.28;3.63;;;;;;;27.03;42.37;100309.78;4800331;29;20062;-80
2023/07/15 07:09:14;;;;;;;4.63;3.63;;;;;;;27.27;42.27;100309.31;4796239;29;20043;-80
2023/07/15 07:11:41;;;;;;;4.00;3.60;;;;;;;27.52;41.92;100312.38;4810821;29;20582;-79
2023/07/15 07:14:09;;;;;;;4.43;3.67;;;;;;;27.67;41.25;100311.75;4803685;29;20038;-82
2023/07/15 07:16:35;;;;;;;4.57;3.63;;;;;;;27.90;41.60;100314.06;4813754;29;20043;-81
2023/07/15 07:19:02;;;;;;;3.80;3.50;;;;;;;28.12;41.63;100312.81;4804657;29;20080;-81
2023/07/15 07:21:29;;;;;;;4.32;3.67;;;;;;;28.10;40.79;100318.38;4816895;29;20031;-81
2023/07/15 07:23:56;;;;;;;5.72;4.07;;;;;;;27.95;39.66;100318.03;4803117;29;20047;-81
2023/07/15 07:26:23;;;;;;;4.57;4.03;;;;;;;28.19;40.58;100306.59;4805128;29;20046;-84
2023/07/15 07:28:49;;;;;;;5.53;3.90;;;;;;;28.47;40.94;100312.00;4816026;29;20520;-82
2023/07/15 07:31:18;;;;;;;5.75;4.05;;;;;;;28.51;40.85;100306.13;4811957;29;20039;-82
2023/07/15 07:33:45;;;;;;;3.92;3.53;;;;;;;28.70;40.83;100307.81;4801328;29;20043;-83
2023/07/15 07:36:12;;;;;;;4.18;3.78;;;;;;;28.84;39.79;100303.66;4802778;29;20078;-82
2023/07/15 07:38:39;;;;;;;4.32;3.95;;;;;;;28.83;38.92;100310.09;4807201;29;20050;-83
2023/07/15 07:41:07;;;;;;;4.82;3.90;;;;;;;29.04;39.51;100299.78;4805102;29;20215;-81
2023/07/15 07:43:35;;;;;;;5.22;4.00;;;;;;;29.23;38.99;100303.31;4805433;29;20415;-83
2023/07/15 07:46:04;;;;;;;4.72;3.97;;;;;;;29.31;38.82;100292.47;4818799;29;20059;-80
2023/07/15 07:48:31;;;;;;;5.25;4.10;;;;;;;29.41;39.27;100288.59;4824905;29;20050;-80
2023/07/15 07:50:59;;;;;;;5.07;3.85;;;;;;;29.17;37.47;100293.91;4791792;29;20120;-81
2023/07/15 07:53:26;;;;;;;4.60;3.58;;;;;;;29.30;37.87;100283.44;4817531;29;21670;-81
2023/07/15 07:55:52;;;;;;;4.68;4.20;;;;;;;29.60;38.13;100276.69;4825520;29;20050;-81
2023/07/15 07:58:19;;;;;;;4.35;3.95;;;;;;;29.72;36.96;100271.78;4798036;29;20051;-80
2023/07/15 08:00:46;;;;;;;4.25;3.63;;;;;;;29.94;37.77;100270.34;4806476;29;20043;-81
2023/07/15 08:03:14;;;;;;;4.13;3.40;;;;;;;29.95;36.55;100263.84;4807424;29;20048;-82
2023/07/15 08:05:46;;;;;;;4.80;3.60;;;;;;;30.21;36.89;100266.50;4805655;29;20074;-83
2023/07/15 08:08:13;;;;;;;5.32;3.63;;;;;;;30.22;35.81;100271.78;4805570;29;20080;-82
2023/07/15 08:10:40;;;;;;;3.75;3.45;;;;;;;30.25;34.79;100265.97;4818185;29;20053;-80
2023/07/15 08:13:07;;;;;;;4.53;3.58;;;;;;;30.50;36.11;100261.41;4817795;29;20115;-82
2023/07/15 08:15:35;;;;;;;4.78;3.60;;;;;;;30.70;36.20;100261.13;4792756;29;20068;-82
2023/07/15 08:18:03;;;;;;;5.43;3.60;;;;;;;30.93;35.67;100250.34;4805379;29;20127;-82
2023/07/15 08:20:30;;;;;;;4.68;3.88;;;;;;;31.10;34.79;100254.72;4806780;29;20054;-82
2023/07/15 08:22:58;;;;;;;26.58;5.82;;;;;;;31.32;35.34;100250.47;4805816;29;20571;-81
2023/07/15 08:25:26;;;;;;;6.18;3.30;;;;;;;31.51;34.67;100254.66;4813497;29;20070;-84
2023/07/15 08:27:54;;;;;;;4.38;3.58;;;;;;;31.62;34.34;100252.41;4816470;29;20126;-84
2023/07/15 08:30:21;;;;;;;3.85;3.40;;;;;;;31.86;34.55;100251.44;4816422;29;20043;-83
2023/07/15 08:32:48;;;;;;;4.75;3.42;;;;;;;31.91;33.92;100250.91;4806207;29;20050;-84
2023/07/15 08:35:15;;;;;;;6.00;3.47;;;;;;;31.53;31.49;100248.00;4800238;29;20067;-82
2023/07/15 08:37:42;;;;;;;23.95;5.93;;;;;;;31.99;32.50;100250.84;4803127;29;20082;-82
2023/07/15 08:40:11;;;;;;;4.78;3.20;;;;;;;32.25;32.94;100246.94;4818586;29;20049;-82
2023/07/15 08:42:38;;;;;;;4.15;3.42;;;;;;;32.35;31.82;100247.56;4787283;29;20312;-82
2023/07/15 08:45:05;;;;;;;3.75;3.20;;;;;;;32.56;32.04;100255.09;4796115;29;20047;-83
2023/07/15 08:47:32;;;;;;;5.38;3.10;;;;;;;32.64;31.50;100255.88;4832986;29;20050;-83
2023/07/15 08:50:02;;;;;;;4.53;3.50;;;;;;;32.89;31.54;100242.88;4799297;29;20496;-82
2023/07/15 08:52:30;;;;;;;3.28;2.90;;;;;;;33.01;30.46;100251.47;4813080;29;20046;-81
2023/07/15 08:54:59;;;;;;;4.28;3.08;;;;;;;32.80;30.28;100246.69;4815967;29;20451;-81
2023/07/15 08:57:25;;;;;;;4.00;3.45;;;;;;;32.80;29.93;100240.38;4817589;29;20418;-81
2023/07/15 08:59:54;;;;;;;186.57;25.52;;;;;;;32.78;30.57;100248.72;4812585;29;20056;-83
2023/07/15 09:02:22;;;;;;;4.97;2.90;;;;;;;32.86;29.87;100250.56;4790355;29;20064;-83
2023/07/15 09:04:49;;;;;;;3.65;3.35;;;;;;;32.22;29.88;100250.88;4804324;29;20083;-82
2023/07/15 09:07:25;;;;;;;3.72;3.42;;;;;;;32.67;30.23;100250.03;4817776;29;20063;-82
2023/07/15 09:09:52;;;;;;;3.55;3.13;;;;;;;32.91;32.04;100250.88;4811555;29;20457;-83
2023/07/15 09:12:22;;;;;;;4.18;3.25;;;;;;;33.17;30.70;100244.97;4802593;29;20221;-83
2023/07/15 09:14:51;;;;;;;5.20;3.70;;;;;;;33.29;31.50;100251.66;4821083;29;20070;-83
2023/07/15 09:17:21;;;;;;;3.97;3.10;;;;;;;33.12;29.22;100244.66;4803178;29;20543;-82
2023/07/15 09:19:49;;;;;;;3.53;2.80;;;;;;;33.03;28.56;100243.91;4806779;29;20055;-81
2023/07/15 09:22:17;;;;;;;6.43;3.35;;;;;;;32.98;28.33;100230.78;4790289;29;20043;-81
2023/07/15 09:24:44;;;;;;;3.53;2.90;;;;;;;33.02;29.80;100237.59;4806855;29;20055;-82
2023/07/15 09:27:11;;;;;;;3.55;3.05;;;;;;;32.92;28.83;100230.69;4819828;29;20121;-82
2023/07/15 09:29:38;;;;;;;4.80;3.13;;;;;;;33.24;29.60;100230.34;4815949;29;20118;-82
2023/07/15 09:32:07;;;;;;;3.10;2.80;;;;;;;33.48;29.33;100234.69;4807425;29;20127;-83
2023/07/15 09:34:39;;;;;;;3.17;2.85;;;;;;;33.37;28.71;100228.84;4811985;29;20047;-83
2023/07/15 09:37:06;;;;;;;3.15;2.58;;;;;;;33.45;27.27;100226.84;4809158;29;20078;-83
2023/07/15 09:39:33;;;;;;;3.03;2.72;;;;;;;33.67;27.66;100236.00;4819664;29;20141;-84
2023/07/15 09:42:02;;;;;;;3.78;2.70;;;;;;;33.97;28.15;100223.13;4801944;29;20415;-83
2023/07/15 09:44:43;;;;;;;3.60;2.60;;;;;;;34.05;28.00;100233.06;4790890;29;20096;-81
2023/07/15 09:47:11;;;;;;;2.92;2.63;;;;;;;34.25;27.23;100216.84;4802945;29;20042;-82
2023/07/15 09:49:38;;;;;;;3.20;2.90;;;;;;;33.86;26.64;100223.56;4808042;29;20050;-82
2023/07/15 09:52:06;;;;;;;3.33;2.97;;;;;;;34.04;27.64;100223.16;4790371;29;20050;-81
2023/07/15 09:54:33;;;;;;;4.43;2.60;;;;;;;34.09;27.28;100218.81;4787620;29;20105;-80
2023/07/15 09:57:03;;;;;;;4.13;3.20;;;;;;;34.17;27.20;100209.59;4791829;29;20047;-82
2023/07/15 09:59:37;;;;;;;4.32;3.25;;;;;;;34.13;27.77;100209.13;4819498;29;20078;-79
2023/07/15 10:02:17;;;;;;;3.40;3.05;;;;;;;33.96;26.87;100207.69;4804660;29;20039;-79
2023/07/15 10:04:45;;;;;;;5.22;3.30;;;;;;;34.09;27.67;100213.31;4791879;29;20471;-80
2023/07/15 10:07:12;;;;;;;4.70;2.80;;;;;;;34.04;27.40;100215.78;4815934;29;20043;-83
2023/07/15 10:09:39;;;;;;;3.15;2.63;;;;;;;33.88;28.14;100216.00;4831759;29;20051;-82
2023/07/15 10:12:07;;;;;;;3.95;2.88;;;;;;;34.05;28.01;100222.13;4822720;29;20317;-84
2023/07/15 10:14:36;;;;;;;3.67;3.00;;;;;;;33.71;26.62;100226.34;4810623;29;20047;-82
2023/07/15 10:17:12;;;;;;;3.38;3.08;;;;;;;33.84;27.35;100220.19;4804151;29;20388;-82
2023/07/15 10:19:43;;;;;;;3.25;2.92;;;;;;;33.92;27.70;100227.47;4819009;29;20324;-82
2023/07/15 10:22:10;;;;;;;4.05;3.13;;;;;;;34.05;26.97;100219.38;4987821;23;20041;-82
2023/07/15 10:24:52;;;;;;;4.15;3.38;;;;;;;34.23;28.05;100224.44;4868173;29;20045;-83
2023/07/15 10:27:21;;;;;;;3.85;2.80;;;;;;;34.34;27.81;100219.25;4879556;29;20062;-81
2023/07/15 10:30:25;;;;;;;3.33;2.88;;;;;;;34.38;27.87;100215.06;4848760;29;20070;-80
2023/07/15 10:32:59;;;;;;;3.28;2.70;;;;;;;34.52;27.37;100220.72;4865324;29;20061;-83
2023/07/15 10:35:33;;;;;;;3.53;2.83;;;;;;;34.38;28.16;100227.94;4894221;29;20049;-81
2023/07/15 10:38:23;;;;;;;3.20;2.90;;;;;;;34.37;28.26;100218.00;4893211;29;20049;-80
2023/07/15 10:40:52;;;;;;;3.72;3.30;;;;;;;34.45;28.43;100228.03;4887659;29;20049;-80
2023/07/15 10:43:34;;;;;;;4.18;2.90;;;;;;;34.35;27.87;100220.97;4880048;29;20045;-81
2023/07/15 10:46:06;;;;;;;9.10;4.13;;;;;;;34.59;27.62;100225.22;4890357;29;20216;-83
2023/07/15 10:48:33;;;;;;;3.97;3.15;;;;;;;34.65;28.54;100237.31;4874668;29;20511;-82
2023/07/15 10:51:06;;;;;;;5.90;3.15;;;;;;;34.72;27.80;100236.28;4843077;29;20045;-83
2023/07/15 10:53:33;;;;;;;7.68;3.60;;;;;;;34.78;28.01;100228.31;4872691;29;20140;-81
2023/07/15 10:56:11;;;;;;;3.75;3.10;;;;;;;34.98;26.79;100229.38;4873634;29;20215;-81
2023/07/15 10:58:43;;;;;;;4.95;2.88;;;;;;;35.11;28.02;100217.59;4878562;29;20170;-81
2023/07/15 11:01:12;;;;;;;3.13;2.83;;;;;;;35.17;27.79;100211.31;4861302;29;20045;-81
2023/07/15 11:03:43;;;;;;;18.88;17.67;;;;;;;35.12;27.72;100213.81;4859217;29;20033;-82
2023/07/15 11:06:10;;;;;;;10.77;9.88;;;;;;;35.30;26.92;100213.28;4857024;29;20468;-81
2023/07/15 11:08:39;;;;;;;3.75;3.10;;;;;;;35.07;26.40;100211.69;4873400;29;20112;-79
2023/07/15 11:11:08;;;;;;;3.17;2.78;;;;;;;35.21;25.97;100210.69;4880173;29;20044;-81
2023/07/15 11:13:37;;;;;;;6.18;3.28;;;;;;;34.78;27.05;100211.84;4859828;29;20041;-81
2023/07/15 11:16:04;;;;;;;4.82;3.65;;;;;;;34.63;27.58;100209.19;4850320;29;20042;-82
2023/07/15 11:18:31;;;;;;;4.13;3.22;;;;;;;34.48;27.70;100211.19;4862104;29;20049;-82
2023/07/15 11:21:04;;;;;;;3.72;3.22;;;;;;;34.61;27.81;100209.41;4874963;29;20187;-83
2023/07/15 11:23:46;;;;;;;9.30;8.40;;;;;;;34.71;27.53;100215.38;4882900;29;20129;-81
2023/07/15 11:26:17;;;;;;;6.22;5.25;;;;;;;34.69;28.36;100213.91;4868190;29;20041;-82
2023/07/15 11:28:50;;;;;;;9.70;7.22;;;;;;;34.77;27.54;100219.25;4859580;29;20420;-81
2023/07/15 11:31:25;;;;;;;2.92;2.60;;;;;;;34.40;25.50;100204.81;4863908;29;20200;-81